createdAt,value
2018-07-15T19:14:25.526Z,24.11
2018-07-15T19:17:08.466Z,24.23
2018-07-15T19:19:42.407Z,24.57
2018-07-15T19:22:15.418Z,24.41
2018-07-15T19:24:50.029Z,24.02
2018-07-15T19:27:23.980Z,25.26
2018-07-15T19:30:08.200Z,24.45
2018-07-15T19:32:39.758Z,24.82
2018-07-15T19:35:17.249Z,25.05
2018-07-15T19:37:51.642Z,25.12
2018-07-15T19:40:23.153Z,25.43
2018-07-15T19:45:39.647Z,25.14
2018-07-15T19:48:15.241Z,25.79
2018-07-15T19:50:48.559Z,25.38
2018-07-15T19:53:20.325Z,26.06
2018-07-15T19:55:53.389Z,25.47
2018-07-15T19:58:25.972Z,25.58
2018-07-15T20:00:58.916Z,26.28
2018-07-15T20:03:32.287Z,26.72
2018-07-15T20:06:03.488Z,26.40
2018-07-15T20:08:39.678Z,27.01
2018-07-15T20:11:14.874Z,26.58
2018-07-15T20:13:48.353Z,26.33
2018-07-15T20:16:26.036Z,26.25
2018-07-15T20:19:00.625Z,26.82
2018-07-15T20:21:33.338Z,27.31
2018-07-15T20:24:07.182Z,26.95
2018-07-15T20:26:38.356Z,27.19
2018-07-15T20:29:11.387Z,28.06
2018-07-15T20:31:47.158Z,27.03
2018-07-15T20:34:20.097Z,27.26
2018-07-15T20:37:14.764Z,27.66
2018-07-15T20:39:52.370Z,26.84
2018-07-15T20:42:24.681Z,26.83
2018-07-15T20:44:58.497Z,27.70
2018-07-15T20:47:30.348Z,28.04
2018-07-15T20:50:01.588Z,27.97
2018-07-15T20:52:33.409Z,27.57
2018-07-15T20:55:09.513Z,27.53
2018-07-15T20:57:46.780Z,27.87
2018-07-15T21:00:20.299Z,27.79
2018-07-15T21:02:59.521Z,28.03
2018-07-15T21:05:36.917Z,28.48
2018-07-15T21:08:13.280Z,28.80
2018-07-15T21:10:49.578Z,28.30
2018-07-15T21:13:26.471Z,28.45
2018-07-15T21:16:02.414Z,29.26
2018-07-15T21:18:34.053Z,29.33
2018-07-15T21:21:06.775Z,29.37
2018-07-15T21:23:37.598Z,28.74
2018-07-15T21:26:09.161Z,29.40
2018-07-15T21:28:39.433Z,29.37
2018-07-15T21:31:11.755Z,28.85
2018-07-15T21:33:43.915Z,29.51
2018-07-15T21:36:15.671Z,29.79
2018-07-15T21:38:48.458Z,29.51
2018-07-15T21:41:18.779Z,29.63
2018-07-15T21:43:57.680Z,29.31
2018-07-15T21:46:31.487Z,29.66
2018-07-15T21:49:04.377Z,30.51
2018-07-15T21:51:36.970Z,30.57
2018-07-15T21:54:10.433Z,30.51
2018-07-15T21:56:43.877Z,30.56
2018-07-15T21:59:14.253Z,31.09
2018-07-15T22:01:45.602Z,30.38
2018-07-15T22:04:16.611Z,31.12
2018-07-15T22:07:00.351Z,30.87
2018-07-15T22:09:56.971Z,31.47
2018-07-15T22:12:27.345Z,31.54
2018-07-15T22:14:58.107Z,32.17
2018-07-15T22:17:28.608Z,31.96
2018-07-15T22:20:01.171Z,32.12
2018-07-15T22:22:32.260Z,32.34
2018-07-15T22:25:03.445Z,32.03
2018-07-15T22:27:34.519Z,31.54
2018-07-15T22:30:08.744Z,32.41
2018-07-15T22:32:39.915Z,32.24
2018-07-15T22:35:13.660Z,31.97
2018-07-15T22:40:19.544Z,32.15
2018-07-15T22:42:59.631Z,32.14
2018-07-15T22:45:37.797Z,32.47
2018-07-15T22:48:08.504Z,32.74
2018-07-15T22:50:38.757Z,32.71
2018-07-15T22:53:17.267Z,33.16
2018-07-15T22:55:48.642Z,33.04
2018-07-15T22:58:27.860Z,33.52
2018-07-15T23:01:00.592Z,33.33
2018-07-15T23:03:31.037Z,33.80
2018-07-15T23:06:12.248Z,32.88
2018-07-15T23:08:42.517Z,33.51
2018-07-15T23:11:12.834Z,33.00
2018-07-15T23:13:43.903Z,33.95
2018-07-15T23:16:14.393Z,33.86
2018-07-15T23:18:45.114Z,33.76
2018-07-15T23:21:15.584Z,34.46
2018-07-15T23:23:46.421Z,33.49
2018-07-15T23:26:16.561Z,34.12
2018-07-15T23:28:47.727Z,34.60
2018-07-15T23:31:18.678Z,33.63
2018-07-15T23:33:48.934Z,33.98
2018-07-15T23:36:20.498Z,34.61
2018-07-15T23:38:54.180Z,34.11
2018-07-15T23:41:24.545Z,34.66
2018-07-15T23:43:54.824Z,35.43
2018-07-15T23:46:26.448Z,34.68
2018-07-15T23:48:57.371Z,34.30
2018-07-15T23:51:30.273Z,34.89
2018-07-15T23:54:02.760Z,35.08
2018-07-15T23:56:32.928Z,34.75
2018-07-15T23:59:04.025Z,34.22
